createdAt,value
2019-03-25T00:01:26.473Z,2.77
2019-03-25T00:03:54.914Z,2.83
2019-03-25T00:06:23.415Z,2.33
2019-03-25T00:09:04.517Z,2.80
2019-03-25T00:11:22.016Z,2.90
2019-03-25T00:13:50.452Z,2.98
2019-03-25T00:16:18.886Z,2.55
2019-03-25T00:18:47.363Z,2.60
2019-03-25T00:21:15.858Z,2.40
2019-03-25T00:23:44.295Z,2.77
2019-03-25T00:26:12.710Z,1.98
2019-03-25T00:28:41.140Z,2.25
2019-03-25T00:31:09.584Z,2.45
2019-03-25T00:33:38.004Z,2.52
2019-03-25T00:36:06.427Z,2.37
2019-03-25T00:38:34.953Z,2.80
2019-03-25T00:41:03.431Z,2.15
2019-03-25T00:43:31.828Z,2.33
2019-03-25T00:46:00.236Z,2.02
2019-03-25T00:48:28.684Z,2.65
2019-03-25T00:50:57.110Z,2.58
2019-03-25T00:53:25.564Z,2.30
2019-03-25T00:55:53.988Z,2.42
2019-03-25T00:58:22.397Z,2.50
2019-03-25T01:00:50.896Z,2.22
2019-03-25T01:03:19.348Z,2.50
2019-03-25T01:05:47.757Z,2.10
2019-03-25T01:08:16.173Z,2.22
2019-03-25T01:10:44.603Z,2.10
2019-03-25T01:13:13.012Z,1.67
2019-03-25T01:15:41.437Z,2.12
2019-03-25T01:18:16.887Z,2.35
2019-03-25T01:20:40.009Z,2.60
2019-03-25T01:23:08.432Z,2.50
2019-03-25T01:25:36.871Z,2.20
2019-03-25T01:28:05.369Z,2.00
2019-03-25T01:30:33.799Z,1.70
2019-03-25T01:33:02.217Z,1.77
2019-03-25T01:35:30.644Z,2.25
2019-03-25T01:37:59.057Z,2.05
2019-03-25T01:40:27.492Z,1.90
2019-03-25T01:42:55.896Z,2.02
2019-03-25T01:45:24.323Z,2.37
2019-03-25T01:47:52.740Z,2.07
2019-03-25T01:50:21.163Z,2.07
2019-03-25T01:52:49.569Z,2.05
2019-03-25T01:55:18.010Z,2.10
2019-03-25T01:57:46.423Z,1.70
2019-03-25T02:00:16.553Z,2.10
2019-03-25T02:02:45.157Z,2.27
2019-03-25T02:05:13.866Z,2.20
2019-03-25T02:07:42.449Z,2.10
2019-03-25T02:10:11.306Z,2.20
2019-03-25T02:12:39.752Z,2.00
2019-03-25T02:15:08.813Z,1.70
2019-03-25T02:17:37.222Z,1.73
2019-03-25T02:20:06.810Z,2.10
2019-03-25T02:22:35.296Z,1.80
2019-03-25T02:25:05.863Z,1.80
2019-03-25T02:27:34.306Z,2.00
2019-03-25T02:30:03.268Z,1.98
2019-03-25T02:32:31.703Z,1.70
2019-03-25T02:35:00.145Z,2.20
2019-03-25T02:37:28.563Z,1.72
2019-03-25T02:39:57.000Z,1.87
2019-03-25T02:42:25.437Z,1.70
2019-03-25T02:44:53.850Z,2.02
2019-03-25T02:47:24.299Z,1.90
2019-03-25T02:49:52.429Z,1.95
2019-03-25T02:52:20.862Z,2.17
2019-03-25T02:54:49.268Z,1.55
2019-03-25T02:57:17.693Z,1.80
2019-03-25T02:59:46.120Z,1.83
2019-03-25T03:02:14.523Z,1.50
2019-03-25T03:04:42.966Z,1.77
2019-03-25T03:07:11.390Z,1.60
2019-03-25T03:09:39.808Z,2.08
2019-03-25T03:12:08.233Z,1.63
2019-03-25T03:14:36.649Z,1.87
2019-03-25T03:17:05.119Z,1.85
2019-03-25T03:19:33.544Z,1.87
2019-03-25T03:22:01.981Z,1.80
2019-03-25T03:24:30.423Z,1.80
2019-03-25T03:26:58.828Z,1.82
2019-03-25T03:29:27.258Z,1.83
2019-03-25T03:31:55.695Z,1.73
2019-03-25T03:34:24.115Z,1.70
2019-03-25T03:36:52.549Z,1.55
2019-03-25T03:39:21.014Z,1.67
2019-03-25T03:41:49.405Z,1.90
2019-03-25T03:44:17.818Z,1.80
2019-03-25T03:46:46.258Z,1.80
2019-03-25T03:49:14.677Z,1.47
2019-03-25T03:51:43.186Z,1.98
2019-03-25T03:54:11.672Z,1.67
2019-03-25T03:56:40.177Z,1.50
2019-03-25T03:59:08.760Z,1.70
2019-03-25T04:01:37.205Z,1.70
2019-03-25T04:04:05.629Z,1.52
2019-03-25T04:06:34.069Z,2.00
2019-03-25T04:09:02.576Z,1.62
2019-03-25T04:11:30.997Z,1.50
2019-03-25T04:13:59.429Z,1.65
2019-03-25T04:16:27.835Z,1.80
2019-03-25T04:18:56.290Z,1.30
2019-03-25T04:21:24.708Z,1.60
2019-03-25T04:23:53.520Z,1.55
2019-03-25T04:26:28.419Z,1.52
2019-03-25T04:28:52.096Z,1.60
2019-03-25T04:31:20.493Z,1.60
2019-03-25T04:33:48.966Z,1.62
2019-03-25T04:36:17.430Z,1.32
2019-03-25T04:38:45.883Z,1.57
2019-03-25T04:41:14.296Z,1.45
2019-03-25T04:43:42.717Z,1.87
2019-03-25T04:46:11.122Z,1.80
2019-03-25T04:48:39.554Z,1.37
2019-03-25T04:51:08.413Z,1.75
2019-03-25T04:53:36.923Z,1.60
2019-03-25T04:56:05.398Z,1.80
2019-03-25T04:58:33.804Z,1.52
2019-03-25T05:01:02.244Z,1.20
2019-03-25T05:03:30.645Z,1.50
2019-03-25T05:05:59.087Z,1.65
2019-03-25T05:08:27.499Z,1.37
2019-03-25T05:10:55.931Z,1.47
2019-03-25T05:13:24.345Z,1.47
2019-03-25T05:15:52.785Z,1.23
2019-03-25T05:18:21.188Z,1.50
2019-03-25T05:20:49.595Z,1.60
2019-03-25T05:23:18.083Z,1.20
2019-03-25T05:25:46.487Z,1.67
2019-03-25T05:28:14.908Z,1.50
2019-03-25T05:30:43.336Z,1.37
2019-03-25T05:33:11.781Z,1.70
2019-03-25T05:35:40.225Z,1.30
2019-03-25T05:38:08.647Z,1.50
2019-03-25T05:40:37.066Z,1.40
2019-03-25T05:43:05.493Z,1.30
2019-03-25T05:45:33.917Z,1.70
2019-03-25T05:48:02.349Z,1.43
2019-03-25T05:50:30.822Z,1.60
2019-03-25T05:52:59.228Z,1.67
2019-03-25T05:55:27.667Z,1.27
2019-03-25T05:57:56.085Z,1.30
2019-03-25T06:00:26.148Z,1.50
2019-03-25T06:02:55.032Z,1.40
2019-03-25T06:05:23.480Z,1.30
2019-03-25T06:07:51.892Z,1.10
2019-03-25T06:10:20.324Z,1.40
2019-03-25T06:12:48.809Z,1.40
2019-03-25T06:15:17.782Z,1.37
2019-03-25T06:17:46.222Z,1.42
2019-03-25T06:20:14.884Z,0.80
2019-03-25T06:22:43.319Z,1.37
2019-03-25T06:25:11.980Z,1.27
2019-03-25T06:27:40.374Z,1.05
2019-03-25T06:30:10.452Z,1.00
2019-03-25T06:32:38.879Z,1.40
2019-03-25T06:35:08.972Z,1.45
2019-03-25T06:37:37.548Z,1.40
2019-03-25T06:40:09.242Z,1.40
2019-03-25T06:42:37.676Z,1.20
2019-03-25T06:45:08.530Z,1.25
2019-03-25T06:47:36.964Z,1.40
2019-03-25T06:50:08.005Z,1.20
2019-03-25T06:52:36.415Z,1.12
2019-03-25T06:55:06.400Z,1.00
2019-03-25T06:57:34.906Z,1.05
2019-03-25T07:00:05.326Z,0.90
2019-03-25T07:02:33.782Z,1.10
2019-03-25T07:05:02.228Z,1.30
2019-03-25T07:07:30.660Z,1.43
2019-03-25T07:09:59.076Z,1.20
2019-03-25T07:12:27.658Z,1.20
2019-03-25T07:14:56.240Z,1.30
2019-03-25T07:17:24.650Z,1.15
2019-03-25T07:19:53.108Z,1.00
2019-03-25T07:22:21.511Z,1.25
2019-03-25T07:24:50.014Z,1.40
2019-03-25T07:27:18.347Z,1.22
2019-03-25T07:29:46.792Z,1.17
2019-03-25T07:32:15.220Z,1.42
2019-03-25T07:34:43.654Z,0.90
2019-03-25T07:37:12.113Z,1.30
2019-03-25T07:39:40.518Z,1.30
2019-03-25T07:42:08.936Z,1.20
2019-03-25T07:44:37.370Z,1.27
2019-03-25T07:47:05.855Z,1.10
2019-03-25T07:49:34.304Z,1.20
2019-03-25T07:52:02.719Z,1.05
2019-03-25T07:54:31.142Z,1.10
2019-03-25T07:56:59.579Z,1.10
2019-03-25T07:59:28.037Z,1.60
2019-03-25T08:01:56.445Z,1.17
2019-03-25T08:04:24.838Z,1.12
2019-03-25T08:06:53.285Z,1.05
2019-03-25T08:09:21.723Z,1.52
2019-03-25T08:11:50.137Z,1.20
2019-03-25T08:14:18.547Z,1.12
2019-03-25T08:16:47.010Z,1.27
2019-03-25T08:19:15.454Z,1.10
2019-03-25T08:21:43.866Z,1.30
2019-03-25T08:24:12.417Z,1.40
2019-03-25T08:26:42.888Z,1.17
2019-03-25T08:29:11.444Z,1.27
2019-03-25T08:31:39.846Z,1.20
2019-03-25T08:34:08.281Z,1.45
2019-03-25T08:36:36.702Z,1.20
2019-03-25T08:39:06.577Z,1.60
2019-03-25T08:41:35.080Z,1.35
2019-03-25T08:44:03.522Z,1.67
2019-03-25T08:46:31.986Z,1.35
2019-03-25T08:49:00.426Z,1.22
2019-03-25T08:51:28.861Z,1.00
2019-03-25T08:53:57.281Z,1.00
2019-03-25T08:56:25.685Z,0.98
2019-03-25T08:58:54.125Z,1.20
2019-03-25T09:01:22.703Z,1.05
2019-03-25T09:03:51.131Z,1.20
2019-03-25T09:06:19.544Z,1.40
2019-03-25T09:08:47.982Z,1.30
2019-03-25T09:11:16.395Z,1.70
2019-03-25T09:13:44.825Z,1.00
2019-03-25T09:16:13.219Z,1.10
2019-03-25T09:18:41.623Z,1.10
2019-03-25T09:21:10.065Z,1.20
2019-03-25T09:23:38.585Z,1.40
2019-03-25T09:26:07.004Z,1.55
2019-03-25T09:28:35.403Z,1.25
2019-03-25T09:31:09.994Z,1.52
2019-03-25T09:33:38.473Z,1.30
2019-03-25T09:36:07.096Z,1.10
2019-03-25T09:38:35.572Z,1.40
2019-03-25T09:41:04.085Z,1.10
2019-03-25T09:43:32.534Z,1.50
2019-03-25T09:46:01.036Z,1.02
2019-03-25T09:48:29.467Z,1.15
2019-03-25T09:50:57.887Z,1.30
2019-03-25T09:53:26.459Z,1.32
2019-03-25T09:55:54.828Z,1.10
2019-03-25T09:58:23.240Z,1.12
2019-03-25T10:00:52.262Z,1.40
2019-03-25T10:03:20.756Z,1.10
2019-03-25T10:05:49.550Z,1.27
2019-03-25T10:08:17.960Z,1.45
2019-03-25T10:10:46.402Z,1.25
2019-03-25T10:13:14.814Z,0.98
2019-03-25T10:15:43.236Z,1.20
2019-03-25T10:18:11.672Z,1.12
2019-03-25T10:20:40.071Z,1.00
2019-03-25T10:23:08.746Z,1.52
2019-03-25T10:25:37.164Z,1.30
2019-03-25T10:28:05.622Z,1.12
2019-03-25T10:30:34.067Z,1.32
2019-03-25T10:33:02.550Z,1.32
2019-03-25T10:35:30.997Z,1.10
2019-03-25T10:37:59.396Z,1.05
2019-03-25T10:40:27.806Z,1.40
2019-03-25T10:42:56.227Z,1.30
2019-03-25T10:45:24.644Z,1.20
2019-03-25T10:47:53.066Z,1.27
2019-03-25T10:50:21.480Z,1.05
2019-03-25T10:52:49.910Z,1.30
2019-03-25T10:55:18.350Z,1.10
2019-03-25T10:57:46.750Z,1.30
2019-03-25T11:00:16.024Z,1.17
2019-03-25T11:02:44.621Z,0.70
2019-03-25T11:05:14.211Z,1.00
2019-03-25T11:10:11.507Z,1.10
2019-03-25T11:12:39.958Z,1.17
2019-03-25T11:15:09.698Z,1.37
2019-03-25T11:17:38.326Z,1.05
2019-03-25T11:20:08.590Z,1.15
2019-03-25T11:22:37.080Z,1.02
2019-03-25T11:25:07.219Z,0.90
2019-03-25T11:27:35.720Z,1.00
2019-03-25T11:30:06.653Z,1.20
2019-03-25T11:32:35.084Z,1.05
2019-03-25T11:35:05.722Z,1.00
2019-03-25T11:37:34.150Z,1.05
2019-03-25T11:40:02.957Z,1.10
2019-03-25T11:42:31.450Z,1.10
2019-03-25T11:44:59.820Z,1.22
2019-03-25T11:47:28.256Z,1.45
2019-03-25T11:49:56.684Z,1.22
2019-03-25T11:52:25.188Z,0.98
2019-03-25T11:54:53.619Z,1.75
2019-03-25T11:57:22.053Z,1.20
2019-03-25T11:59:50.490Z,2.00
2019-03-25T12:02:19.050Z,2.12
2019-03-25T12:04:47.493Z,3.15
2019-03-25T12:07:15.923Z,2.77
2019-03-25T12:09:44.363Z,3.85
2019-03-25T12:12:12.787Z,3.47
2019-03-25T12:14:41.211Z,2.25
2019-03-25T12:17:09.651Z,2.27
2019-03-25T12:19:38.068Z,2.55
2019-03-25T12:22:06.516Z,2.50
2019-03-25T12:24:34.946Z,3.92
2019-03-25T12:27:03.436Z,2.60
2019-03-25T12:29:31.865Z,2.33
2019-03-25T12:32:00.301Z,2.58
2019-03-25T12:34:28.861Z,2.95
2019-03-25T12:36:57.231Z,2.42
2019-03-25T12:39:25.664Z,3.10
2019-03-25T12:41:54.135Z,2.30
2019-03-25T12:44:22.562Z,1.85
2019-03-25T12:46:50.982Z,2.45
2019-03-25T12:49:19.438Z,2.37
2019-03-25T12:51:48.538Z,2.20
2019-03-25T12:54:17.168Z,2.05
2019-03-25T12:56:45.591Z,1.87
2019-03-25T12:59:14.020Z,2.12
2019-03-25T13:01:52.508Z,1.98
2019-03-25T13:04:12.610Z,1.57
2019-03-25T13:06:41.046Z,1.90
2019-03-25T13:09:09.567Z,1.70
2019-03-25T13:11:38.005Z,2.17
2019-03-25T13:14:06.521Z,1.45
2019-03-25T13:16:35.047Z,1.75
2019-03-25T13:19:03.484Z,1.47
2019-03-25T13:21:32.032Z,1.80
2019-03-25T13:24:00.447Z,1.70
2019-03-25T13:26:28.880Z,1.90
2019-03-25T13:29:01.984Z,1.52
2019-03-25T13:31:27.477Z,1.30
2019-03-25T13:33:55.948Z,2.08
2019-03-25T13:36:24.344Z,1.75
2019-03-25T13:38:52.783Z,1.80
2019-03-25T13:41:21.205Z,1.40
2019-03-25T13:43:49.657Z,1.90
2019-03-25T13:46:18.090Z,1.62
2019-03-25T13:48:46.507Z,1.40
2019-03-25T13:51:14.938Z,1.37
2019-03-25T13:53:43.369Z,1.10
2019-03-25T13:56:11.832Z,1.35
2019-03-25T13:58:40.234Z,1.17
2019-03-25T14:01:08.662Z,1.40
2019-03-25T14:03:37.184Z,1.22
2019-03-25T14:06:05.903Z,1.12
2019-03-25T14:08:34.325Z,1.50
2019-03-25T14:11:02.754Z,1.52
2019-03-25T14:13:31.177Z,1.22
2019-03-25T14:15:59.893Z,1.42
2019-03-25T14:18:28.300Z,1.32
2019-03-25T14:20:56.775Z,1.10
2019-03-25T14:23:25.145Z,1.30
2019-03-25T14:25:53.585Z,1.20
2019-03-25T14:28:22.016Z,1.22
2019-03-25T14:30:50.531Z,1.10
2019-03-25T14:33:18.967Z,1.00
2019-03-25T14:35:47.380Z,1.25
2019-03-25T14:38:15.820Z,1.12
2019-03-25T14:40:44.242Z,1.10
2019-03-25T14:43:12.656Z,0.72
2019-03-25T14:45:41.112Z,1.35
2019-03-25T14:48:09.542Z,1.10
2019-03-25T14:50:38.000Z,1.27
2019-03-25T14:53:06.491Z,0.60
2019-03-25T14:55:34.928Z,0.95
2019-03-25T14:58:03.330Z,0.80
2019-03-25T15:00:31.788Z,0.98
2019-03-25T15:03:00.195Z,0.90
2019-03-25T15:05:28.634Z,1.27
2019-03-25T15:07:57.051Z,0.80
2019-03-25T15:10:25.498Z,0.80
2019-03-25T15:12:53.906Z,1.22
2019-03-25T15:15:22.470Z,0.70
2019-03-25T15:17:50.905Z,0.95
2019-03-25T15:20:19.314Z,0.70
2019-03-25T15:22:47.770Z,0.55
2019-03-25T15:25:16.410Z,0.85
2019-03-25T15:27:44.863Z,1.52
2019-03-25T15:30:14.213Z,1.70
2019-03-25T15:32:43.192Z,0.82
2019-03-25T15:35:11.934Z,0.80
2019-03-25T15:37:40.399Z,0.90
2019-03-25T15:40:13.509Z,0.85
2019-03-25T15:42:42.311Z,0.80
2019-03-25T15:45:11.270Z,0.93
2019-03-25T15:47:40.478Z,0.88
2019-03-25T15:50:09.924Z,1.30
2019-03-25T15:52:39.165Z,0.90
2019-03-25T15:55:08.032Z,0.90
2019-03-25T15:57:36.443Z,0.90
2019-03-25T16:00:07.941Z,0.70
2019-03-25T16:02:36.372Z,0.60
2019-03-25T16:05:06.225Z,0.93
2019-03-25T16:07:34.822Z,0.50
2019-03-25T16:10:04.770Z,0.90
2019-03-25T16:12:33.216Z,0.65
2019-03-25T16:15:01.650Z,0.90
2019-03-25T16:17:30.061Z,0.50
2019-03-25T16:19:58.506Z,0.93
2019-03-25T16:22:26.912Z,0.78
2019-03-25T16:24:55.433Z,0.80
2019-03-25T16:27:23.869Z,1.20
2019-03-25T16:29:52.308Z,0.80
2019-03-25T16:32:20.746Z,0.62
2019-03-25T16:34:49.173Z,1.05
2019-03-25T16:37:17.592Z,1.17
2019-03-25T16:39:46.038Z,0.68
2019-03-25T16:42:14.459Z,0.62
2019-03-25T16:44:42.908Z,0.53
2019-03-25T16:47:11.359Z,0.60
2019-03-25T16:49:39.777Z,1.12
2019-03-25T16:52:08.275Z,0.70
2019-03-25T16:54:36.735Z,0.70
2019-03-25T16:57:05.227Z,0.53
2019-03-25T16:59:33.671Z,0.45
2019-03-25T17:02:02.125Z,0.50
2019-03-25T17:04:30.563Z,0.75
2019-03-25T17:06:59.001Z,0.50
2019-03-25T17:09:27.409Z,0.72
2019-03-25T17:11:55.835Z,0.45
2019-03-25T17:14:24.283Z,0.68
2019-03-25T17:16:52.703Z,0.50
2019-03-25T17:19:21.188Z,0.80
2019-03-25T17:21:57.728Z,0.80
2019-03-25T17:24:19.735Z,0.57
2019-03-25T17:26:48.193Z,0.40
2019-03-25T17:29:16.597Z,0.53
2019-03-25T17:31:45.031Z,0.70
2019-03-25T17:34:13.462Z,0.50
2019-03-25T17:36:41.881Z,0.50
2019-03-25T17:39:10.298Z,0.60
2019-03-25T17:41:38.726Z,0.60
2019-03-25T17:44:07.141Z,0.50
2019-03-25T17:46:35.651Z,0.60
2019-03-25T17:49:04.065Z,0.70
2019-03-25T17:51:32.487Z,0.62
2019-03-25T17:54:00.911Z,0.57
2019-03-25T17:56:29.314Z,0.33
2019-03-25T17:58:57.749Z,0.55
2019-03-25T18:01:32.293Z,0.50
2019-03-25T18:03:57.616Z,0.40
2019-03-25T18:06:26.181Z,0.70
2019-03-25T18:08:54.739Z,0.60
2019-03-25T18:11:23.140Z,0.65
2019-03-25T18:13:51.610Z,0.50
2019-03-25T18:16:20.026Z,0.40
2019-03-25T18:18:48.437Z,0.60
2019-03-25T18:21:16.881Z,0.50
2019-03-25T18:23:45.290Z,0.50
2019-03-25T18:26:13.740Z,0.70
2019-03-25T18:28:42.203Z,0.62
2019-03-25T18:31:10.728Z,0.50
2019-03-25T18:33:39.167Z,0.75
2019-03-25T18:36:07.577Z,0.50
2019-03-25T18:38:36.021Z,0.40
2019-03-25T18:41:04.436Z,0.50
2019-03-25T18:43:32.940Z,0.68
2019-03-25T18:46:01.356Z,0.60
2019-03-25T18:48:29.873Z,0.65
2019-03-25T18:50:58.291Z,0.62
2019-03-25T18:53:26.693Z,0.60
2019-03-25T18:55:55.336Z,0.53
2019-03-25T18:58:23.835Z,0.50
2019-03-25T19:00:52.263Z,0.50
2019-03-25T19:03:20.843Z,0.40
2019-03-25T19:05:49.614Z,0.57
2019-03-25T19:08:19.098Z,0.45
2019-03-25T19:10:47.510Z,0.60
2019-03-25T19:13:15.939Z,0.30
2019-03-25T19:15:44.402Z,0.30
2019-03-25T19:18:12.821Z,0.45
2019-03-25T19:20:41.268Z,0.60
2019-03-25T19:23:09.685Z,0.40
2019-03-25T19:25:38.142Z,0.30
2019-03-25T19:28:06.644Z,0.60
2019-03-25T19:30:35.061Z,0.30
2019-03-25T19:33:03.577Z,0.50
2019-03-25T19:35:31.980Z,0.45
2019-03-25T19:38:00.491Z,0.40
2019-03-25T19:40:28.946Z,0.50
2019-03-25T19:42:57.436Z,0.63
2019-03-25T19:45:25.850Z,0.40
2019-03-25T19:47:54.250Z,0.40
2019-03-25T19:50:22.864Z,0.50
2019-03-25T19:52:51.270Z,0.40
2019-03-25T19:55:19.706Z,0.25
2019-03-25T19:57:48.142Z,0.30
2019-03-25T20:00:19.644Z,0.60
2019-03-25T20:02:48.035Z,0.53
2019-03-25T20:05:16.457Z,0.50
2019-03-25T20:07:44.884Z,0.43
2019-03-25T20:10:28.080Z,0.50
2019-03-25T20:12:57.017Z,0.30
2019-03-25T20:15:25.394Z,0.40
2019-03-25T20:17:53.843Z,0.40
2019-03-25T20:20:22.255Z,0.33
2019-03-25T20:22:50.688Z,0.50
2019-03-25T20:25:19.148Z,0.40
2019-03-25T20:27:47.522Z,0.53
2019-03-25T20:30:16.133Z,0.45
2019-03-25T20:32:44.687Z,0.40
2019-03-25T20:35:13.119Z,0.30
2019-03-25T20:37:41.604Z,0.57
2019-03-25T20:40:10.705Z,0.50
2019-03-25T20:42:39.093Z,0.67
2019-03-25T20:45:08.569Z,0.70
2019-03-25T20:47:37.015Z,0.33
2019-03-25T20:50:08.665Z,0.53
2019-03-25T20:52:37.096Z,0.73
2019-03-25T20:55:07.839Z,0.50
2019-03-25T20:57:36.267Z,0.53
2019-03-25T21:00:07.174Z,0.60
2019-03-25T21:02:44.946Z,0.53
2019-03-25T21:05:07.012Z,0.57
2019-03-25T21:07:35.402Z,0.50
2019-03-25T21:10:06.372Z,0.40
2019-03-25T21:12:34.845Z,0.40
2019-03-25T21:15:04.357Z,0.50
2019-03-25T21:17:32.782Z,0.60
2019-03-25T21:20:01.267Z,0.60
2019-03-25T21:22:29.771Z,0.70
2019-03-25T21:24:58.204Z,0.40
2019-03-25T21:27:26.641Z,0.40
2019-03-25T21:29:55.061Z,0.70
2019-03-25T21:32:23.588Z,0.50
2019-03-25T21:34:52.091Z,0.60
2019-03-25T21:37:20.468Z,0.53
2019-03-25T21:39:49.032Z,0.42
2019-03-25T21:42:17.525Z,0.60
2019-03-25T21:44:46.049Z,0.50
2019-03-25T21:47:14.470Z,0.57
2019-03-25T21:49:42.899Z,0.70
2019-03-25T21:52:11.363Z,0.40
2019-03-25T21:54:39.834Z,0.63
2019-03-25T21:57:08.232Z,0.50
2019-03-25T21:59:36.666Z,0.60
2019-03-25T22:02:05.075Z,0.45
2019-03-25T22:04:33.513Z,0.40
2019-03-25T22:07:01.945Z,0.40
2019-03-25T22:09:30.355Z,0.60
2019-03-25T22:11:58.776Z,0.50
2019-03-25T22:14:27.203Z,0.57
2019-03-25T22:16:55.643Z,0.68
2019-03-25T22:19:24.096Z,0.50
2019-03-25T22:21:52.501Z,0.70
2019-03-25T22:24:20.946Z,0.60
2019-03-25T22:26:49.373Z,0.60
2019-03-25T22:29:17.889Z,0.50
2019-03-25T22:31:46.325Z,0.65
2019-03-25T22:34:14.769Z,0.70
2019-03-25T22:36:43.193Z,0.60
2019-03-25T22:39:11.620Z,0.50
2019-03-25T22:41:40.213Z,0.53
2019-03-25T22:44:08.654Z,0.57
2019-03-25T22:46:37.049Z,0.50
2019-03-25T22:49:05.560Z,0.60
2019-03-25T22:51:33.957Z,0.50
2019-03-25T22:54:02.396Z,0.60
2019-03-25T22:56:30.839Z,0.60
2019-03-25T22:58:59.247Z,0.50
2019-03-25T23:01:27.901Z,0.57
2019-03-25T23:03:56.297Z,0.60
2019-03-25T23:06:24.737Z,0.70
2019-03-25T23:08:53.147Z,0.70
2019-03-25T23:11:21.585Z,0.40
2019-03-25T23:13:50.066Z,0.40
2019-03-25T23:16:18.463Z,0.47
2019-03-25T23:18:46.874Z,0.43
2019-03-25T23:21:15.310Z,0.47
2019-03-25T23:23:43.763Z,0.47
2019-03-25T23:26:12.163Z,0.80
2019-03-25T23:28:40.590Z,0.50
2019-03-25T23:31:09.071Z,0.73
2019-03-25T23:33:37.508Z,0.50
2019-03-25T23:36:05.906Z,0.70
2019-03-25T23:38:34.349Z,0.60
2019-03-25T23:41:02.802Z,0.80
2019-03-25T23:43:31.233Z,0.60
2019-03-25T23:45:59.644Z,0.40
2019-03-25T23:48:28.082Z,0.80
2019-03-25T23:50:56.490Z,0.60
2019-03-25T23:53:24.918Z,0.43
2019-03-25T23:55:53.359Z,0.50
2019-03-25T23:58:21.763Z,0.70
